sensor_id;sensor_type;location;lat;lon;timestamp;pressure;altitude;pressure_sealevel;temperature;humidity
54994;BME280;40891;47.242;8.648;2023-04-25T00:00:40;95844.56;;;10.66;61.51
54994;BME280;40891;47.242;8.648;2023-04-25T00:03:05;95830.03;;;10.71;62.61
54994;BME280;40891;47.242;8.648;2023-04-25T00:05:31;95831.13;;;10.64;61.65
54994;BME280;40891;47.242;8.648;2023-04-25T00:07:57;95835.75;;;10.58;62.59
54994;BME280;40891;47.242;8.648;2023-04-25T00:10:23;95840.72;;;10.54;63.13
54994;BME280;40891;47.242;8.648;2023-04-25T00:12:48;95827.75;;;10.51;62.08
54994;BME280;40891;47.242;8.648;2023-04-25T00:15:14;95843.94;;;10.71;61.70
54994;BME280;40891;47.242;8.648;2023-04-25T00:17:39;95829.28;;;10.61;61.72
54994;BME280;40891;47.242;8.648;2023-04-25T00:20:05;95829.91;;;10.56;60.33
54994;BME280;40891;47.242;8.648;2023-04-25T00:22:34;95825.44;;;10.50;60.23
54994;BME280;40891;47.242;8.648;2023-04-25T00:24:59;95827.28;;;10.53;59.76
54994;BME280;40891;47.242;8.648;2023-04-25T00:27:33;95826.81;;;10.54;59.80
54994;BME280;40891;47.242;8.648;2023-04-25T00:29:58;95827.91;;;10.57;61.37
54994;BME280;40891;47.242;8.648;2023-04-25T00:32:25;95831.59;;;10.54;59.06
54994;BME280;40891;47.242;8.648;2023-04-25T00:34:50;95821.88;;;10.49;60.05
54994;BME280;40891;47.242;8.648;2023-04-25T00:37:15;95821.56;;;10.56;58.97
54994;BME280;40891;47.242;8.648;2023-04-25T00:39:41;95821.22;;;10.72;58.85
54994;BME280;40891;47.242;8.648;2023-04-25T00:42:06;95823.13;;;10.57;60.37
54994;BME280;40891;47.242;8.648;2023-04-25T00:44:33;95816.16;;;10.62;59.12
54994;BME280;40891;47.242;8.648;2023-04-25T00:47:01;95814.94;;;10.45;59.75
54994;BME280;40891;47.242;8.648;2023-04-25T00:49:26;95812.31;;;10.50;59.37
54994;BME280;40891;47.242;8.648;2023-04-25T00:51:52;95809.22;;;10.48;60.51
54994;BME280;40891;47.242;8.648;2023-04-25T00:54:17;95815.53;;;10.49;58.90
54994;BME280;40891;47.242;8.648;2023-04-25T00:56:43;95808.59;;;10.44;59.55
54994;BME280;40891;47.242;8.648;2023-04-25T00:59:10;95810.31;;;10.42;60.32
54994;BME280;40891;47.242;8.648;2023-04-25T01:01:36;95810.63;;;10.35;59.83
54994;BME280;40891;47.242;8.648;2023-04-25T01:04:02;95814.78;;;10.39;60.46
54994;BME280;40891;47.242;8.648;2023-04-25T01:06:28;95810.63;;;10.35;60.67
54994;BME280;40891;47.242;8.648;2023-04-25T01:08:53;95809.25;;;10.30;60.46
54994;BME280;40891;47.242;8.648;2023-04-25T01:11:19;95801.84;;;10.36;59.39
54994;BME280;40891;47.242;8.648;2023-04-25T01:13:45;95808.94;;;10.37;60.25
54994;BME280;40891;47.242;8.648;2023-04-25T01:16:10;95799.50;;;10.44;58.41
54994;BME280;40891;47.242;8.648;2023-04-25T01:18:38;95799.97;;;10.42;58.62
54994;BME280;40891;47.242;8.648;2023-04-25T01:21:11;95791.34;;;10.40;58.48
54994;BME280;40891;47.242;8.648;2023-04-25T01:23:42;95795.97;;;10.43;58.94
54994;BME280;40891;47.242;8.648;2023-04-25T01:26:11;95795.34;;;10.39;58.74
54994;BME280;40891;47.242;8.648;2023-04-25T01:28:38;95786.09;;;10.33;59.83
54994;BME280;40891;47.242;8.648;2023-04-25T01:31:06;95799.66;;;10.40;58.84
54994;BME280;40891;47.242;8.648;2023-04-25T01:33:32;95794.25;;;10.37;58.56
54994;BME280;40891;47.242;8.648;2023-04-25T01:35:57;95796.28;;;10.36;59.09
54994;BME280;40891;47.242;8.648;2023-04-25T01:38:22;95796.91;;;10.31;58.82
54994;BME280;40891;47.242;8.648;2023-04-25T01:40:49;95790.59;;;10.21;60.14
54994;BME280;40891;47.242;8.648;2023-04-25T01:43:16;95791.81;;;10.20;60.70
54994;BME280;40891;47.242;8.648;2023-04-25T01:45:42;95794.00;;;10.16;60.45
54994;BME280;40891;47.242;8.648;2023-04-25T01:48:08;95785.94;;;10.09;60.19
54994;BME280;40891;47.242;8.648;2023-04-25T01:50:34;95786.41;;;10.08;61.20
54994;BME280;40891;47.242;8.648;2023-04-25T01:52:59;95784.84;;;10.07;61.02
54994;BME280;40891;47.242;8.648;2023-04-25T01:55:26;95786.25;;;10.02;61.92
54994;BME280;40891;47.242;8.648;2023-04-25T01:57:52;95782.41;;;10.00;61.41
54994;BME280;40891;47.242;8.648;2023-04-25T02:00:17;95784.56;;;9.96;62.57
54994;BME280;40891;47.242;8.648;2023-04-25T02:02:43;95785.50;;;9.84;63.43
54994;BME280;40891;47.242;8.648;2023-04-25T02:05:08;95781.47;;;9.76;63.10
54994;BME280;40891;47.242;8.648;2023-04-25T02:07:34;95783.75;;;9.68;63.58
54994;BME280;40891;47.242;8.648;2023-04-25T02:09:59;95776.81;;;9.64;63.49
54994;BME280;40891;47.242;8.648;2023-04-25T02:12:24;95787.31;;;9.59;64.88
54994;BME280;40891;47.242;8.648;2023-04-25T02:14:51;95781.75;;;9.50;65.34
54994;BME280;40891;47.242;8.648;2023-04-25T02:17:16;95783.13;;;9.37;66.96
54994;BME280;40891;47.242;8.648;2023-04-25T02:19:42;95770.97;;;9.43;68.02
54994;BME280;40891;47.242;8.648;2023-04-25T02:22:08;95778.44;;;9.16;69.61
54994;BME280;40891;47.242;8.648;2023-04-25T02:24:33;95779.00;;;9.02;70.40
54994;BME280;40891;47.242;8.648;2023-04-25T02:27:00;95779.94;;;8.99;70.10
54994;BME280;40891;47.242;8.648;2023-04-25T02:29:25;95781.63;;;8.96;70.52
54994;BME280;40891;47.242;8.648;2023-04-25T02:31:50;95774.88;;;9.06;69.47
54994;BME280;40891;47.242;8.648;2023-04-25T02:34:16;95775.13;;;8.99;70.09
54994;BME280;40891;47.242;8.648;2023-04-25T02:36:41;95772.72;;;9.01;68.23
54994;BME280;40891;47.242;8.648;2023-04-25T02:39:06;95779.63;;;8.97;70.50
54994;BME280;40891;47.242;8.648;2023-04-25T02:41:32;95776.34;;;8.89;70.74
54994;BME280;40891;47.242;8.648;2023-04-25T02:43:57;95775.88;;;8.81;71.40
54994;BME280;40891;47.242;8.648;2023-04-25T02:46:22;95773.56;;;8.80;70.96
54994;BME280;40891;47.242;8.648;2023-04-25T02:48:48;95771.41;;;8.84;71.40
54994;BME280;40891;47.242;8.648;2023-04-25T02:51:13;95769.28;;;8.97;70.31
54994;BME280;40891;47.242;8.648;2023-04-25T02:53:41;95770.81;;;8.89;71.42
54994;BME280;40891;47.242;8.648;2023-04-25T02:56:07;95769.25;;;8.88;71.68
54994;BME280;40891;47.242;8.648;2023-04-25T02:58:32;95769.25;;;8.88;71.45
54994;BME280;40891;47.242;8.648;2023-04-25T03:00:57;95757.25;;;8.91;72.24
54994;BME280;40891;47.242;8.648;2023-04-25T03:03:23;95764.34;;;8.92;72.89
54994;BME280;40891;47.242;8.648;2023-04-25T03:05:49;95758.66;;;8.96;72.60
54994;BME280;40891;47.242;8.648;2023-04-25T03:08:15;95761.75;;;8.98;73.38
54994;BME280;40891;47.242;8.648;2023-04-25T03:10:41;95757.88;;;8.95;74.55
54994;BME280;40891;47.242;8.648;2023-04-25T03:13:06;95764.22;;;8.96;74.57
54994;BME280;40891;47.242;8.648;2023-04-25T03:15:31;95756.34;;;8.94;74.92
54994;BME280;40891;47.242;8.648;2023-04-25T03:17:57;95746.34;;;8.97;75.09
54994;BME280;40891;47.242;8.648;2023-04-25T03:20:22;95755.13;;;8.95;75.02
54994;BME280;40891;47.242;8.648;2023-04-25T03:22:48;95741.75;;;9.12;72.68
54994;BME280;40891;47.242;8.648;2023-04-25T03:25:13;95741.16;;;9.17;71.41
54994;BME280;40891;47.242;8.648;2023-04-25T03:27:38;95745.94;;;9.16;72.19
54994;BME280;40891;47.242;8.648;2023-04-25T03:30:04;95751.63;;;9.13;71.64
54994;BME280;40891;47.242;8.648;2023-04-25T03:32:30;95742.06;;;9.14;72.62
54994;BME280;40891;47.242;8.648;2023-04-25T03:34:55;95755.78;;;9.08;74.78
54994;BME280;40891;47.242;8.648;2023-04-25T03:37:21;95761.63;;;9.01;73.19
54994;BME280;40891;47.242;8.648;2023-04-25T03:39:46;95744.09;;;9.13;71.65
54994;BME280;40891;47.242;8.648;2023-04-25T03:42:11;95745.16;;;9.16;73.56
54994;BME280;40891;47.242;8.648;2023-04-25T03:44:37;95737.28;;;9.14;74.75
54994;BME280;40891;47.242;8.648;2023-04-25T03:47:02;95745.00;;;9.10;76.45
54994;BME280;40891;47.242;8.648;2023-04-25T03:49:28;95745.91;;;9.07;77.54
54994;BME280;40891;47.242;8.648;2023-04-25T03:51:53;95741.44;;;9.10;77.02
54994;BME280;40891;47.242;8.648;2023-04-25T03:54:18;95737.78;;;9.13;74.55
54994;BME280;40891;47.242;8.648;2023-04-25T03:56:44;95743.16;;;9.16;74.32
54994;BME280;40891;47.242;8.648;2023-04-25T03:59:09;95741.16;;;9.17;74.52
54994;BME280;40891;47.242;8.648;2023-04-25T04:01:34;95742.25;;;9.19;75.25
54994;BME280;40891;47.242;8.648;2023-04-25T04:04:00;95740.25;;;9.20;73.63
54994;BME280;40891;47.242;8.648;2023-04-25T04:06:25;95737.63;;;9.25;73.38
54994;BME280;40891;47.242;8.648;2023-04-25T04:08:51;95742.09;;;9.23;74.39
54994;BME280;40891;47.242;8.648;2023-04-25T04:11:17;95741.16;;;9.17;73.65
54994;BME280;40891;47.242;8.648;2023-04-25T04:13:42;95731.75;;;9.14;74.44
54994;BME280;40891;47.242;8.648;2023-04-25T04:16:07;95734.50;;;9.05;75.81
54994;BME280;40891;47.242;8.648;2023-04-25T04:18:33;95736.31;;;8.99;75.49
54994;BME280;40891;47.242;8.648;2023-04-25T04:20:58;95731.25;;;8.98;73.66
54994;BME280;40891;47.242;8.648;2023-04-25T04:23:24;95724.03;;;9.00;74.52
54994;BME280;40891;47.242;8.648;2023-04-25T04:25:49;95730.34;;;9.10;74.28
54994;BME280;40891;47.242;8.648;2023-04-25T04:28:15;95731.75;;;9.05;74.69
54994;BME280;40891;47.242;8.648;2023-04-25T04:30:41;95726.06;;;9.18;71.44
54994;BME280;40891;47.242;8.648;2023-04-25T04:33:08;95736.06;;;9.06;72.39
54994;BME280;40891;47.242;8.648;2023-04-25T04:35:34;95739.59;;;9.07;73.17
54994;BME280;40891;47.242;8.648;2023-04-25T04:37:59;95741.63;;;9.06;74.58
54994;BME280;40891;47.242;8.648;2023-04-25T04:40:24;95729.75;;;9.06;72.35
54994;BME280;40891;47.242;8.648;2023-04-25T04:42:50;95747.00;;;9.10;73.03
54994;BME280;40891;47.242;8.648;2023-04-25T04:45:16;95739.75;;;9.12;72.83
54994;BME280;40891;47.242;8.648;2023-04-25T04:47:42;95737.28;;;9.14;72.62
54994;BME280;40891;47.242;8.648;2023-04-25T04:50:08;95735.31;;;9.33;70.73
54994;BME280;40891;47.242;8.648;2023-04-25T04:52:38;95732.22;;;9.22;71.20
54994;BME280;40891;47.242;8.648;2023-04-25T04:55:04;95735.47;;;9.20;73.04
54994;BME280;40891;47.242;8.648;2023-04-25T04:57:30;95735.13;;;9.18;73.23
54994;BME280;40891;47.242;8.648;2023-04-25T04:59:58;95738.22;;;9.11;75.06
54994;BME280;40891;47.242;8.648;2023-04-25T05:02:24;95738.84;;;9.15;72.99
54994;BME280;40891;47.242;8.648;2023-04-25T05:04:50;95734.50;;;9.05;76.45
54994;BME280;40891;47.242;8.648;2023-04-25T05:07:16;95728.22;;;9.23;72.48
54994;BME280;40891;47.242;8.648;2023-04-25T05:09:42;95733.16;;;9.19;75.40
54994;BME280;40891;47.242;8.648;2023-04-25T05:12:07;95734.22;;;9.12;76.65
54994;BME280;40891;47.242;8.648;2023-04-25T05:14:32;95744.53;;;9.12;76.64
54994;BME280;40891;47.242;8.648;2023-04-25T05:16:58;95743.59;;;9.06;78.43
54994;BME280;40891;47.242;8.648;2023-04-25T05:19:23;95738.84;;;9.06;79.49
54994;BME280;40891;47.242;8.648;2023-04-25T05:21:49;95741.94;;;9.17;78.78
54994;BME280;40891;47.242;8.648;2023-04-25T05:24:14;95741.81;;;9.30;70.66
54994;BME280;40891;47.242;8.648;2023-04-25T05:26:40;95738.88;;;9.42;71.82
54994;BME280;40891;47.242;8.648;2023-04-25T05:29:05;95742.59;;;9.57;70.44
54994;BME280;40891;47.242;8.648;2023-04-25T05:31:31;95737.34;;;9.78;69.52
54994;BME280;40891;47.242;8.648;2023-04-25T05:33:57;95741.22;;;9.80;66.19
54994;BME280;40891;47.242;8.648;2023-04-25T05:36:22;95736.44;;;9.72;67.14
54994;BME280;40891;47.242;8.648;2023-04-25T05:38:47;95734.88;;;9.71;67.76
54994;BME280;40891;47.242;8.648;2023-04-25T05:41:13;95729.81;;;9.60;67.36
54994;BME280;40891;47.242;8.648;2023-04-25T05:43:38;95738.75;;;9.55;68.49
54994;BME280;40891;47.242;8.648;2023-04-25T05:46:04;95732.72;;;9.66;67.97
54994;BME280;40891;47.242;8.648;2023-04-25T05:48:29;95729.66;;;9.64;67.97
54994;BME280;40891;47.242;8.648;2023-04-25T05:50:55;95738.44;;;9.62;68.02
54994;BME280;40891;47.242;8.648;2023-04-25T05:53:20;95735.66;;;9.71;67.89
54994;BME280;40891;47.242;8.648;2023-04-25T05:55:47;95732.56;;;9.87;69.22
54994;BME280;40891;47.242;8.648;2023-04-25T05:58:12;95730.09;;;9.98;66.85
54994;BME280;40891;47.242;8.648;2023-04-25T06:00:38;95726.56;;;9.98;67.28
54994;BME280;40891;47.242;8.648;2023-04-25T06:03:03;95727.16;;;10.02;67.29
54994;BME280;40891;47.242;8.648;2023-04-25T06:05:28;95719.63;;;10.11;65.83
54994;BME280;40891;47.242;8.648;2023-04-25T06:07:54;95732.41;;;10.18;67.09
54994;BME280;40891;47.242;8.648;2023-04-25T06:10:19;95736.09;;;10.33;66.91
54994;BME280;40891;47.242;8.648;2023-04-25T06:12:45;95731.56;;;10.45;66.83
54994;BME280;40891;47.242;8.648;2023-04-25T06:15:10;95742.94;;;10.56;67.03
54994;BME280;40891;47.242;8.648;2023-04-25T06:17:36;95735.69;;;10.58;65.64
54994;BME280;40891;47.242;8.648;2023-04-25T06:20:02;95744.03;;;10.58;66.13
54994;BME280;40891;47.242;8.648;2023-04-25T06:22:28;95751.72;;;10.12;67.31
54994;BME280;40891;47.242;8.648;2023-04-25T06:24:54;95746.28;;;10.18;68.32
54994;BME280;40891;47.242;8.648;2023-04-25T06:27:22;95750.31;;;10.08;68.36
54994;BME280;40891;47.242;8.648;2023-04-25T06:29:47;95760.97;;;10.00;70.52
54994;BME280;40891;47.242;8.648;2023-04-25T06:32:13;95759.72;;;10.01;74.35
54994;BME280;40891;47.242;8.648;2023-04-25T06:34:38;95760.19;;;10.00;76.85
54994;BME280;40891;47.242;8.648;2023-04-25T06:37:03;95770.66;;;9.87;76.88
54994;BME280;40891;47.242;8.648;2023-04-25T06:39:29;95779.28;;;9.71;81.24
54994;BME280;40891;47.242;8.648;2023-04-25T06:41:54;95782.38;;;9.54;81.16
54994;BME280;40891;47.242;8.648;2023-04-25T06:44:19;95787.28;;;9.41;83.28
54994;BME280;40891;47.242;8.648;2023-04-25T06:46:44;95803.00;;;9.35;84.85
54994;BME280;40891;47.242;8.648;2023-04-25T06:49:10;95803.34;;;9.07;85.51
54994;BME280;40891;47.242;8.648;2023-04-25T06:51:35;95818.03;;;8.76;88.90
54994;BME280;40891;47.242;8.648;2023-04-25T06:54:00;95811.66;;;8.67;91.37
54994;BME280;40891;47.242;8.648;2023-04-25T06:56:26;95824.19;;;8.50;91.73
54994;BME280;40891;47.242;8.648;2023-04-25T06:58:53;95824.72;;;8.36;94.37
54994;BME280;40891;47.242;8.648;2023-04-25T07:01:18;95820.16;;;8.42;95.22
54994;BME280;40891;47.242;8.648;2023-04-25T07:03:43;95824.25;;;8.15;95.17
54994;BME280;40891;47.242;8.648;2023-04-25T07:06:09;95821.84;;;8.05;97.14
54994;BME280;40891;47.242;8.648;2023-04-25T07:08:34;95825.69;;;7.86;95.30
54994;BME280;40891;47.242;8.648;2023-04-25T07:10:59;95826.63;;;7.70;92.07
54994;BME280;40891;47.242;8.648;2023-04-25T07:13:25;95826.47;;;7.52;96.35
54994;BME280;40891;47.242;8.648;2023-04-25T07:15:50;95835.34;;;7.34;98.47
54994;BME280;40891;47.242;8.648;2023-04-25T07:18:15;95827.03;;;7.47;97.02
54994;BME280;40891;47.242;8.648;2023-04-25T07:20:41;95826.72;;;7.45;100.00
54994;BME280;40891;47.242;8.648;2023-04-25T07:23:06;95842.66;;;7.28;98.35
54994;BME280;40891;47.242;8.648;2023-04-25T07:25:32;95836.59;;;7.33;100.00
54994;BME280;40891;47.242;8.648;2023-04-25T07:27:57;95820.84;;;7.43;100.00
54994;BME280;40891;47.242;8.648;2023-04-25T07:30:23;95818.97;;;7.40;98.84
54994;BME280;40891;47.242;8.648;2023-04-25T07:32:49;95819.16;;;7.58;99.58
54994;BME280;40891;47.242;8.648;2023-04-25T07:35:15;95810.16;;;7.67;98.29
54994;BME280;40891;47.242;8.648;2023-04-25T07:37:40;95814.47;;;7.68;98.88
54994;BME280;40891;47.242;8.648;2023-04-25T07:40:06;95813.06;;;7.63;99.77
54994;BME280;40891;47.242;8.648;2023-04-25T07:42:32;95803.81;;;7.79;100.00
54994;BME280;40891;47.242;8.648;2023-04-25T07:44:58;95810.28;;;7.63;97.59
54994;BME280;40891;47.242;8.648;2023-04-25T07:47:23;95817.72;;;7.53;97.69
54994;BME280;40891;47.242;8.648;2023-04-25T07:49:49;95818.50;;;7.54;100.00
54994;BME280;40891;47.242;8.648;2023-04-25T07:52:14;95821.47;;;7.60;98.78
54994;BME280;40891;47.242;8.648;2023-04-25T07:54:40;95826.53;;;7.74;100.00
54994;BME280;40891;47.242;8.648;2023-04-25T07:57:05;95823.59;;;7.90;99.15
54994;BME280;40891;47.242;8.648;2023-04-25T07:59:33;95821.22;;;8.01;98.03
54994;BME280;40891;47.242;8.648;2023-04-25T08:02:00;95827.69;;;8.07;99.11
54994;BME280;40891;47.242;8.648;2023-04-25T08:04:25;95833.38;;;8.03;98.60
54994;BME280;40891;47.242;8.648;2023-04-25T08:06:51;95843.16;;;7.95;98.75
54994;BME280;40891;47.242;8.648;2023-04-25T08:09:16;95843.03;;;7.99;99.09
54994;BME280;40891;47.242;8.648;2023-04-25T08:11:42;95847.94;;;7.95;100.00
54994;BME280;40891;47.242;8.648;2023-04-25T08:14:08;95853.47;;;8.16;97.43
54994;BME280;40891;47.242;8.648;2023-04-25T08:16:33;95855.53;;;8.03;98.91
54994;BME280;40891;47.242;8.648;2023-04-25T08:18:59;95851.06;;;8.40;99.71
54994;BME280;40891;47.242;8.648;2023-04-25T08:21:25;95857.31;;;8.32;98.77
54994;BME280;40891;47.242;8.648;2023-04-25T08:23:52;95870.63;;;8.67;96.04
54994;BME280;40891;47.242;8.648;2023-04-25T08:26:17;95862.78;;;8.66;94.55
54994;BME280;40891;47.242;8.648;2023-04-25T08:28:43;95863.47;;;8.79;95.02
54994;BME280;40891;47.242;8.648;2023-04-25T08:31:08;95869.25;;;8.94;93.91
54994;BME280;40891;47.242;8.648;2023-04-25T08:33:33;95877.19;;;8.82;94.41
54994;BME280;40891;47.242;8.648;2023-04-25T08:35:59;95889.31;;;8.54;96.14
54994;BME280;40891;47.242;8.648;2023-04-25T08:38:24;95889.31;;;8.54;97.97
54994;BME280;40891;47.242;8.648;2023-04-25T08:40:50;95903.00;;;8.49;95.11
54994;BME280;40891;47.242;8.648;2023-04-25T08:43:18;95907.38;;;8.59;96.97
54994;BME280;40891;47.242;8.648;2023-04-25T08:45:44;95906.91;;;8.60;96.16
54994;BME280;40891;47.242;8.648;2023-04-25T08:48:15;95910.84;;;8.72;93.10
54994;BME280;40891;47.242;8.648;2023-04-25T08:50:45;95893.16;;;9.00;91.17
54994;BME280;40891;47.242;8.648;2023-04-25T08:53:16;95898.00;;;9.57;89.49
54994;BME280;40891;47.242;8.648;2023-04-25T08:55:45;95875.47;;;10.13;87.61
54994;BME280;40891;47.242;8.648;2023-04-25T08:58:11;95881.03;;;10.32;89.84
54994;BME280;40891;47.242;8.648;2023-04-25T09:00:36;95883.66;;;10.35;88.01
54994;BME280;40891;47.242;8.648;2023-04-25T09:03:02;95885.94;;;10.37;84.89
54994;BME280;40891;47.242;8.648;2023-04-25T09:05:28;95901.88;;;10.36;83.31
54994;BME280;40891;47.242;8.648;2023-04-25T09:07:54;95891.50;;;10.37;83.68
54994;BME280;40891;47.242;8.648;2023-04-25T09:10:19;95896.59;;;10.65;84.80
54994;BME280;40891;47.242;8.648;2023-04-25T09:12:44;95906.13;;;10.91;78.53
54994;BME280;40891;47.242;8.648;2023-04-25T09:15:21;95917.94;;;10.59;80.95
54994;BME280;40891;47.242;8.648;2023-04-25T09:17:55;95925.31;;;10.53;83.50
54994;BME280;40891;47.242;8.648;2023-04-25T09:20:21;95928.13;;;10.71;81.70
54994;BME280;40891;47.242;8.648;2023-04-25T09:22:46;95931.19;;;10.55;82.11
54994;BME280;40891;47.242;8.648;2023-04-25T09:25:13;95948.63;;;10.19;86.59
54994;BME280;40891;47.242;8.648;2023-04-25T09:27:52;95968.34;;;9.64;89.10
54994;BME280;40891;47.242;8.648;2023-04-25T09:30:18;95970.50;;;9.07;93.97
54994;BME280;40891;47.242;8.648;2023-04-25T09:32:44;95968.41;;;8.89;96.56
54994;BME280;40891;47.242;8.648;2023-04-25T09:35:10;95969.47;;;8.92;100.00
54994;BME280;40891;47.242;8.648;2023-04-25T09:37:36;95980.50;;;8.83;99.10
54994;BME280;40891;47.242;8.648;2023-04-25T09:40:05;95985.22;;;8.52;98.44
54994;BME280;40891;47.242;8.648;2023-04-25T09:42:32;95993.41;;;8.43;97.85
54994;BME280;40891;47.242;8.648;2023-04-25T09:45:01;95999.09;;;8.39;97.58
54994;BME280;40891;47.242;8.648;2023-04-25T09:47:27;96001.63;;;8.21;100.00
54994;BME280;40891;47.242;8.648;2023-04-25T09:49:54;96003.97;;;8.22;100.00
54994;BME280;40891;47.242;8.648;2023-04-25T09:52:22;95991.34;;;8.21;100.00
54994;BME280;40891;47.242;8.648;2023-04-25T09:54:49;95997.47;;;8.63;100.00
54994;BME280;40891;47.242;8.648;2023-04-25T09:57:20;95990.13;;;8.91;96.29
54994;BME280;40891;47.242;8.648;2023-04-25T09:59:48;95995.50;;;9.38;94.59
54994;BME280;40891;47.242;8.648;2023-04-25T10:02:16;95994.50;;;9.53;94.89
54994;BME280;40891;47.242;8.648;2023-04-25T10:04:42;96008.28;;;9.35;94.80
54994;BME280;40891;47.242;8.648;2023-04-25T10:07:11;95999.72;;;9.21;98.33
54994;BME280;40891;47.242;8.648;2023-04-25T10:09:38;96007.72;;;8.97;99.82
54994;BME280;40891;47.242;8.648;2023-04-25T10:12:05;96008.38;;;8.79;100.00
54994;BME280;40891;47.242;8.648;2023-04-25T10:14:31;96008.94;;;8.74;100.00
54994;BME280;40891;47.242;8.648;2023-04-25T10:16:58;96003.00;;;8.85;96.65
54994;BME280;40891;47.242;8.648;2023-04-25T10:19:25;96008.03;;;8.99;97.38
54994;BME280;40891;47.242;8.648;2023-04-25T10:21:55;96015.59;;;8.99;91.56
54994;BME280;40891;47.242;8.648;2023-04-25T10:24:22;96015.53;;;8.89;90.00
54994;BME280;40891;47.242;8.648;2023-04-25T10:26:48;96021.00;;;9.02;90.71
54994;BME280;40891;47.242;8.648;2023-04-25T10:29:24;96019.13;;;9.21;87.98
54994;BME280;40891;47.242;8.648;2023-04-25T10:31:50;96007.97;;;9.64;90.20
54994;BME280;40891;47.242;8.648;2023-04-25T10:34:17;96012.56;;;9.89;85.36
54994;BME280;40891;47.242;8.648;2023-04-25T10:36:42;96001.00;;;10.93;83.61
54994;BME280;40891;47.242;8.648;2023-04-25T10:39:08;95998.84;;;11.67;80.38
54994;BME280;40891;47.242;8.648;2023-04-25T10:41:47;95991.94;;;12.04;78.25
54994;BME280;40891;47.242;8.648;2023-04-25T10:44:15;95993.31;;;11.57;80.00
54994;BME280;40891;47.242;8.648;2023-04-25T10:46:40;95988.06;;;11.69;78.83
54994;BME280;40891;47.242;8.648;2023-04-25T10:49:07;95987.34;;;11.32;79.92
54994;BME280;40891;47.242;8.648;2023-04-25T10:51:34;96000.06;;;11.06;80.12
54994;BME280;40891;47.242;8.648;2023-04-25T10:54:03;95984.88;;;11.34;77.79
54994;BME280;40891;47.242;8.648;2023-04-25T10:56:30;95980.69;;;12.22;75.06
54994;BME280;40891;47.242;8.648;2023-04-25T10:59:11;95977.75;;;12.87;75.12
54994;BME280;40891;47.242;8.648;2023-04-25T11:01:47;95986.06;;;12.96;71.81
54994;BME280;40891;47.242;8.648;2023-04-25T11:04:20;95989.28;;;12.57;71.95
54994;BME280;40891;47.242;8.648;2023-04-25T11:07:02;95995.19;;;12.97;71.88
54994;BME280;40891;47.242;8.648;2023-04-25T11:09:32;95992.31;;;12.68;71.80
54994;BME280;40891;47.242;8.648;2023-04-25T11:11:59;95994.34;;;12.20;74.89
54994;BME280;40891;47.242;8.648;2023-04-25T11:14:26;96005.53;;;11.78;76.04
54994;BME280;40891;47.242;8.648;2023-04-25T11:16:56;96007.31;;;11.12;78.56
54994;BME280;40891;47.242;8.648;2023-04-25T11:19:23;96002.84;;;11.06;77.95
54994;BME280;40891;47.242;8.648;2023-04-25T11:21:48;96018.59;;;10.36;82.56
54994;BME280;40891;47.242;8.648;2023-04-25T11:24:16;96019.00;;;10.16;85.27
54994;BME280;40891;47.242;8.648;2023-04-25T11:26:42;96026.53;;;9.76;87.87
54994;BME280;40891;47.242;8.648;2023-04-25T11:29:08;96020.25;;;9.54;91.76
54994;BME280;40891;47.242;8.648;2023-04-25T11:31:33;96020.84;;;9.49;87.33
54994;BME280;40891;47.242;8.648;2023-04-25T11:33:59;96022.59;;;9.55;89.06
54994;BME280;40891;47.242;8.648;2023-04-25T11:36:25;96025.25;;;9.68;90.09
54994;BME280;40891;47.242;8.648;2023-04-25T11:38:52;96024.22;;;9.75;89.24
54994;BME280;40891;47.242;8.648;2023-04-25T11:41:18;96026.00;;;9.99;90.23
54994;BME280;40891;47.242;8.648;2023-04-25T11:43:44;96014.75;;;10.52;87.37
54994;BME280;40891;47.242;8.648;2023-04-25T11:46:09;96019.56;;;10.69;89.13
54994;BME280;40891;47.242;8.648;2023-04-25T11:48:42;96017.41;;;10.82;87.12
54994;BME280;40891;47.242;8.648;2023-04-25T11:51:08;96024.66;;;10.80;85.20
54994;BME280;40891;47.242;8.648;2023-04-25T11:53:33;96022.28;;;10.33;83.29
54994;BME280;40891;47.242;8.648;2023-04-25T11:55:59;96036.97;;;10.03;85.62
54994;BME280;40891;47.242;8.648;2023-04-25T11:58:26;96037.88;;;10.00;87.15
54994;BME280;40891;47.242;8.648;2023-04-25T12:00:51;96041.13;;;9.98;87.18
54994;BME280;40891;47.242;8.648;2023-04-25T12:03:18;96044.91;;;10.13;88.43
54994;BME280;40891;47.242;8.648;2023-04-25T12:05:45;96032.63;;;10.42;88.02
54994;BME280;40891;47.242;8.648;2023-04-25T12:08:14;96026.03;;;10.93;80.86
54994;BME280;40891;47.242;8.648;2023-04-25T12:10:41;96023.03;;;11.51;82.22
54994;BME280;40891;47.242;8.648;2023-04-25T12:13:21;96019.78;;;11.53;76.22
54994;BME280;40891;47.242;8.648;2023-04-25T12:15:47;96028.75;;;12.08;73.64
54994;BME280;40891;47.242;8.648;2023-04-25T12:18:12;96036.69;;;13.42;69.34
54994;BME280;40891;47.242;8.648;2023-04-25T12:20:38;96025.75;;;14.87;61.41
54994;BME280;40891;47.242;8.648;2023-04-25T12:23:05;96026.34;;;15.37;57.68
54994;BME280;40891;47.242;8.648;2023-04-25T12:25:42;96041.50;;;14.00;60.33
54994;BME280;40891;47.242;8.648;2023-04-25T12:28:16;96033.13;;;15.05;60.21
54994;BME280;40891;47.242;8.648;2023-04-25T12:30:58;96019.91;;;15.31;56.33
54994;BME280;40891;47.242;8.648;2023-04-25T12:33:25;96038.31;;;15.37;56.05
54994;BME280;40891;47.242;8.648;2023-04-25T12:35:52;96024.75;;;16.07;55.34
54994;BME280;40891;47.242;8.648;2023-04-25T12:38:25;96021.94;;;16.07;54.27
54994;BME280;40891;47.242;8.648;2023-04-25T12:40:51;96031.78;;;16.28;52.74
54994;BME280;40891;47.242;8.648;2023-04-25T12:43:17;96033.25;;;16.97;51.27
54994;BME280;40891;47.242;8.648;2023-04-25T12:45:53;96026.91;;;18.28;48.56
54994;BME280;40891;47.242;8.648;2023-04-25T12:48:19;96020.53;;;18.50;46.47
54994;BME280;40891;47.242;8.648;2023-04-25T12:50:45;96006.53;;;20.35;44.02
54994;BME280;40891;47.242;8.648;2023-04-25T12:53:12;96014.09;;;19.86;43.32
54994;BME280;40891;47.242;8.648;2023-04-25T12:55:37;96013.44;;;19.69;44.13
54994;BME280;40891;47.242;8.648;2023-04-25T12:58:03;96017.97;;;18.29;46.40
54994;BME280;40891;47.242;8.648;2023-04-25T13:00:29;96009.03;;;19.22;44.00